Search for airport 
image banner adimage banner adimage banner ad
image banner ad

3CL0 - Uc Davis Medical Center Tower Ii

Located in Sacramento, United States

ICAO - 3CL0, IATA -

Data provided by Airmate  

General information

Coordinates: N38°33'18" W121°27'20"
Elevation is 236 feet MSL.
Magnetic variation is 15° East
View others Airports in California

Operational data

Special qualification required
Current time UTC:
Current local time:
Weather at : KSAC - Sacramento Executive ( 6 km )
METAR: KSAC 141153Z AUTO 18003KT 10SM CLR 17/16 A2998 RMK AO2 SLP150 T01670156 10189 20167 53005
TAF: KSAC 141204Z 1412/1512 20008KT P6SM SKC TEMPO 1412/1416 BKN012 FM142000 21012G18KT P6SM FEW250 FM150600 19006KT P6SM SKC
View NOTAMs / SUP AIP / TFR affecting this airport [VIEW]
Communications frequencies: [VIEW]

Runways:

Airport contact information

Address: Sacramento United States

Satellite view of 3CL0